sensor_id;sensor_type;location;lat;lon;timestamp;noise_LAeq;noise_LA_min;noise_LA_max;noise_LA01;noise_LA95
61249;Laerm;47119;49.130;9.218;2023-04-16T06:44:55;51.29;36.57;68.88;;
61249;Laerm;47119;49.130;9.218;2023-04-16T07:10:24;51.98;38.22;75.61;;
61249;Laerm;47119;49.130;9.218;2023-04-16T07:12:53;48.93;36.42;63.41;;
61249;Laerm;47119;49.130;9.218;2023-04-16T07:15:20;53.48;35.17;67.80;;
61249;Laerm;47119;49.130;9.218;2023-04-16T07:17:51;53.21;38.37;70.52;;
61249;Laerm;47119;49.130;9.218;2023-04-16T07:20:18;53.13;37.80;74.54;;
61249;Laerm;47119;49.130;9.218;2023-04-16T07:22:46;52.45;39.49;68.44;;
61249;Laerm;47119;49.130;9.218;2023-04-16T07:25:13;53.47;38.10;68.45;;
61249;Laerm;47119;49.130;9.218;2023-04-16T07:27:42;54.89;41.17;68.82;;
61249;Laerm;47119;49.130;9.218;2023-04-16T07:30:35;51.43;40.11;66.49;;
61249;Laerm;47119;49.130;9.218;2023-04-16T07:33:06;53.44;42.59;66.77;;
61249;Laerm;47119;49.130;9.218;2023-04-16T07:35:40;57.82;44.69;72.07;;
61249;Laerm;47119;49.130;9.218;2023-04-16T07:38:21;56.41;38.07;69.54;;
61249;Laerm;47119;49.130;9.218;2023-04-16T07:40:54;56.65;40.36;71.38;;
61249;Laerm;47119;49.130;9.218;2023-04-16T07:49:53;54.75;40.24;79.58;;
61249;Laerm;47119;49.130;9.218;2023-04-16T07:53:17;57.38;41.68;73.10;;
61249;Laerm;47119;49.130;9.218;2023-04-16T07:56:00;52.08;40.80;67.25;;
61249;Laerm;47119;49.130;9.218;2023-04-16T07:58:29;55.16;41.66;69.61;;
61249;Laerm;47119;49.130;9.218;2023-04-16T08:01:58;58.97;49.76;75.68;;
61249;Laerm;47119;49.130;9.218;2023-04-16T08:05:04;58.25;49.27;73.77;;
61249;Laerm;47119;49.130;9.218;2023-04-16T08:07:37;56.97;40.01;75.39;;
61249;Laerm;47119;49.130;9.218;2023-04-16T08:10:06;55.66;38.82;74.90;;
61249;Laerm;47119;49.130;9.218;2023-04-16T08:12:36;54.28;39.83;70.61;;
61249;Laerm;47119;49.130;9.218;2023-04-16T08:15:23;54.64;42.05;75.14;;
61249;Laerm;47119;49.130;9.218;2023-04-16T08:17:55;57.45;41.83;70.98;;
61249;Laerm;47119;49.130;9.218;2023-04-16T08:20:25;55.03;39.66;73.43;;
61249;Laerm;47119;49.130;9.218;2023-04-16T08:23:04;53.96;40.92;74.02;;
61249;Laerm;47119;49.130;9.218;2023-04-16T08:31:03;54.56;40.55;76.70;;
61249;Laerm;47119;49.130;9.218;2023-04-16T08:34:14;57.17;44.00;74.91;;
61249;Laerm;47119;49.130;9.218;2023-04-16T08:36:59;55.89;43.24;73.85;;
61249;Laerm;47119;49.130;9.218;2023-04-16T08:44:25;55.08;44.19;71.04;;
61249;Laerm;47119;49.130;9.218;2023-04-16T08:47:20;58.20;43.50;87.29;;
61249;Laerm;47119;49.130;9.218;2023-04-16T08:50:33;56.77;41.34;85.84;;
61249;Laerm;47119;49.130;9.218;2023-04-16T08:53:47;55.35;40.75;83.44;;
61249;Laerm;47119;49.130;9.218;2023-04-16T08:56:19;55.08;40.90;73.26;;
61249;Laerm;47119;49.130;9.218;2023-04-16T08:58:49;55.64;41.92;71.07;;
61249;Laerm;47119;49.130;9.218;2023-04-16T09:01:28;55.00;41.55;75.25;;
61249;Laerm;47119;49.130;9.218;2023-04-16T09:03:58;53.58;43.40;68.41;;
61249;Laerm;47119;49.130;9.218;2023-04-16T09:06:26;51.74;39.30;67.89;;
61249;Laerm;47119;49.130;9.218;2023-04-16T09:08:55;57.31;40.27;80.34;;
61249;Laerm;47119;49.130;9.218;2023-04-16T09:11:24;54.82;40.45;77.61;;
61249;Laerm;47119;49.130;9.218;2023-04-16T09:13:52;55.23;43.53;72.67;;
61249;Laerm;47119;49.130;9.218;2023-04-16T09:16:20;51.84;39.40;69.11;;
61249;Laerm;47119;49.130;9.218;2023-04-16T09:18:47;54.89;44.04;67.54;;
61249;Laerm;47119;49.130;9.218;2023-04-16T09:21:19;53.00;40.26;72.02;;
61249;Laerm;47119;49.130;9.218;2023-04-16T09:23:49;55.67;41.41;70.51;;
61249;Laerm;47119;49.130;9.218;2023-04-16T09:26:16;55.45;41.35;70.71;;
61249;Laerm;47119;49.130;9.218;2023-04-16T09:28:45;52.72;42.56;68.01;;
61249;Laerm;47119;49.130;9.218;2023-04-16T09:31:20;51.16;40.20;66.37;;
61249;Laerm;47119;49.130;9.218;2023-04-16T09:34:05;54.53;42.99;69.64;;
61249;Laerm;47119;49.130;9.218;2023-04-16T09:36:54;53.63;43.04;76.28;;
61249;Laerm;47119;49.130;9.218;2023-04-16T09:39:22;52.93;38.59;74.28;;
61249;Laerm;47119;49.130;9.218;2023-04-16T09:41:52;54.50;38.69;70.88;;
61249;Laerm;47119;49.130;9.218;2023-04-16T09:44:34;54.67;38.92;70.13;;
61249;Laerm;47119;49.130;9.218;2023-04-16T09:47:11;57.24;45.40;70.33;;
61249;Laerm;47119;49.130;9.218;2023-04-16T09:49:41;57.17;45.95;75.54;;
61249;Laerm;47119;49.130;9.218;2023-04-16T11:05:11;58.02;41.51;82.91;;
61249;Laerm;47119;49.130;9.218;2023-04-16T11:08:45;52.50;40.23;78.76;;
61249;Laerm;47119;49.130;9.218;2023-04-16T11:11:18;52.92;43.20;66.70;;
61249;Laerm;47119;49.130;9.218;2023-04-16T11:13:48;55.42;42.68;72.84;;
61249;Laerm;47119;49.130;9.218;2023-04-16T11:16:41;55.65;44.98;72.13;;
61249;Laerm;47119;49.130;9.218;2023-04-16T11:19:34;55.80;39.29;73.60;;
61249;Laerm;47119;49.130;9.218;2023-04-16T11:22:38;54.71;41.29;69.05;;
61249;Laerm;47119;49.130;9.218;2023-04-16T11:30:04;54.30;41.15;69.70;;
61249;Laerm;47119;49.130;9.218;2023-04-16T11:32:36;52.63;41.58;70.18;;
61249;Laerm;47119;49.130;9.218;2023-04-16T11:35:16;52.37;38.48;67.85;;
61249;Laerm;47119;49.130;9.218;2023-04-16T11:37:45;53.76;41.30;68.27;;
61249;Laerm;47119;49.130;9.218;2023-04-16T11:40:13;54.81;42.26;85.21;;
61249;Laerm;47119;49.130;9.218;2023-04-16T11:42:42;56.05;41.25;79.06;;
61249;Laerm;47119;49.130;9.218;2023-04-16T11:45:12;54.08;43.43;72.07;;
61249;Laerm;47119;49.130;9.218;2023-04-16T11:47:45;55.00;41.39;69.54;;
61249;Laerm;47119;49.130;9.218;2023-04-16T11:50:22;55.18;41.84;72.18;;
61249;Laerm;47119;49.130;9.218;2023-04-16T11:52:56;56.21;41.95;67.73;;
61249;Laerm;47119;49.130;9.218;2023-04-16T12:00:15;56.36;42.32;78.14;;
61249;Laerm;47119;49.130;9.218;2023-04-16T12:02:44;57.20;41.64;72.18;;
61249;Laerm;47119;49.130;9.218;2023-04-16T12:05:30;55.07;40.91;70.84;;
61249;Laerm;47119;49.130;9.218;2023-04-16T12:08:30;56.31;40.12;70.52;;
61249;Laerm;47119;49.130;9.218;2023-04-16T12:10:57;53.97;41.53;66.62;;
61249;Laerm;47119;49.130;9.218;2023-04-16T12:13:27;52.11;40.33;71.32;;
61249;Laerm;47119;49.130;9.218;2023-04-16T12:15:56;57.74;43.31;74.36;;
61249;Laerm;47119;49.130;9.218;2023-04-16T12:18:24;57.06;43.81;69.69;;
61249;Laerm;47119;49.130;9.218;2023-04-16T12:20:54;57.09;39.96;74.26;;
61249;Laerm;47119;49.130;9.218;2023-04-16T12:23:24;55.48;40.84;72.76;;
61249;Laerm;47119;49.130;9.218;2023-04-16T12:25:56;57.11;41.05;69.91;;
61249;Laerm;47119;49.130;9.218;2023-04-16T12:28:33;55.34;39.68;72.04;;
61249;Laerm;47119;49.130;9.218;2023-04-16T12:31:04;53.04;39.86;68.50;;
61249;Laerm;47119;49.130;9.218;2023-04-16T12:33:34;54.53;41.81;69.11;;
61249;Laerm;47119;49.130;9.218;2023-04-16T12:36:16;53.59;41.82;70.34;;
61249;Laerm;47119;49.130;9.218;2023-04-16T12:38:48;56.17;42.44;71.96;;
61249;Laerm;47119;49.130;9.218;2023-04-16T12:41:19;57.99;41.41;74.09;;
61249;Laerm;47119;49.130;9.218;2023-04-16T12:43:46;54.50;41.56;71.33;;
61249;Laerm;47119;49.130;9.218;2023-04-16T12:46:13;53.55;42.61;68.15;;
61249;Laerm;47119;49.130;9.218;2023-04-16T12:48:40;53.48;42.24;67.95;;
61249;Laerm;47119;49.130;9.218;2023-04-16T12:51:08;52.48;39.59;63.53;;
61249;Laerm;47119;49.130;9.218;2023-04-16T12:53:35;56.45;40.46;70.22;;
61249;Laerm;47119;49.130;9.218;2023-04-16T12:56:02;53.71;41.44;68.80;;
61249;Laerm;47119;49.130;9.218;2023-04-16T12:58:31;54.86;42.58;71.53;;
61249;Laerm;47119;49.130;9.218;2023-04-16T13:01:09;55.76;40.75;70.09;;
61249;Laerm;47119;49.130;9.218;2023-04-16T13:05:07;56.26;42.93;69.65;;
61249;Laerm;47119;49.130;9.218;2023-04-16T13:43:57;54.88;41.50;69.02;;
61249;Laerm;47119;49.130;9.218;2023-04-16T17:30:50;53.57;43.46;66.58;;
61249;Laerm;47119;49.130;9.218;2023-04-16T17:33:19;53.22;40.56;65.16;;
61249;Laerm;47119;49.130;9.218;2023-04-16T17:36:02;53.11;38.21;74.51;;
61249;Laerm;47119;49.130;9.218;2023-04-16T17:39:08;55.24;39.09;68.80;;
61249;Laerm;47119;49.130;9.218;2023-04-16T17:42:10;52.12;38.27;64.84;;
61249;Laerm;47119;49.130;9.218;2023-04-16T17:44:51;52.44;40.42;66.54;;
61249;Laerm;47119;49.130;9.218;2023-04-16T17:47:44;53.22;39.49;69.68;;
61249;Laerm;47119;49.130;9.218;2023-04-16T17:50:35;52.43;42.17;67.52;;
61249;Laerm;47119;49.130;9.218;2023-04-16T17:53:53;53.70;39.28;68.98;;
61249;Laerm;47119;49.130;9.218;2023-04-16T17:57:04;52.26;40.25;68.06;;
61249;Laerm;47119;49.130;9.218;2023-04-16T17:59:48;54.53;41.72;66.78;;
61249;Laerm;47119;49.130;9.218;2023-04-16T22:05:25;42.57;31.11;52.05;;
61249;Laerm;47119;49.130;9.218;2023-04-16T22:08:06;45.32;30.35;61.81;;
61249;Laerm;47119;49.130;9.218;2023-04-16T22:11:01;44.55;31.55;54.92;;
61249;Laerm;47119;49.130;9.218;2023-04-16T22:13:32;47.49;33.92;63.45;;
61249;Laerm;47119;49.130;9.218;2023-04-16T22:16:09;39.87;30.68;51.52;;
61249;Laerm;47119;49.130;9.218;2023-04-16T22:18:36;44.63;31.28;63.45;;
61249;Laerm;47119;49.130;9.218;2023-04-16T22:21:08;47.66;32.57;79.28;;
61249;Laerm;47119;49.130;9.218;2023-04-16T22:23:36;43.87;30.90;60.69;;
61249;Laerm;47119;49.130;9.218;2023-04-16T22:26:03;50.17;32.53;67.26;;
61249;Laerm;47119;49.130;9.218;2023-04-16T22:28:32;46.07;31.53;72.28;;
61249;Laerm;47119;49.130;9.218;2023-04-16T22:33:55;42.92;31.31;57.95;;
61249;Laerm;47119;49.130;9.218;2023-04-16T22:36:23;43.24;31.12;56.70;;
61249;Laerm;47119;49.130;9.218;2023-04-16T22:38:51;43.81;31.50;56.54;;
61249;Laerm;47119;49.130;9.218;2023-04-16T22:41:18;37.82;30.56;51.25;;
61249;Laerm;47119;49.130;9.218;2023-04-16T22:43:45;48.13;31.12;68.39;;
61249;Laerm;47119;49.130;9.218;2023-04-16T22:46:13;44.31;32.36;73.68;;
61249;Laerm;47119;49.130;9.218;2023-04-16T22:48:40;39.24;30.30;50.99;;
61249;Laerm;47119;49.130;9.218;2023-04-16T22:51:10;38.61;30.35;49.95;;
61249;Laerm;47119;49.130;9.218;2023-04-16T22:53:41;44.67;30.97;65.13;;
61249;Laerm;47119;49.130;9.218;2023-04-16T22:56:08;45.51;31.82;59.25;;
61249;Laerm;47119;49.130;9.218;2023-04-16T22:58:35;44.39;32.18;62.94;;
61249;Laerm;47119;49.130;9.218;2023-04-16T23:01:04;40.51;31.36;51.15;;
61249;Laerm;47119;49.130;9.218;2023-04-16T23:03:31;35.09;30.35;46.61;;
61249;Laerm;47119;49.130;9.218;2023-04-16T23:05:58;37.54;30.76;48.06;;
61249;Laerm;47119;49.130;9.218;2023-04-16T23:08:26;36.30;30.51;47.04;;
61249;Laerm;47119;49.130;9.218;2023-04-16T23:13:56;44.35;31.71;62.48;;
61249;Laerm;47119;49.130;9.218;2023-04-16T23:16:34;35.92;30.03;47.17;;
61249;Laerm;47119;49.130;9.218;2023-04-16T23:19:11;38.25;30.91;49.04;;
61249;Laerm;47119;49.130;9.218;2023-04-16T23:21:42;37.02;29.82;49.06;;
61249;Laerm;47119;49.130;9.218;2023-04-16T23:24:09;45.12;31.44;63.14;;
61249;Laerm;47119;49.130;9.218;2023-04-16T23:26:38;43.56;30.78;62.55;;
61249;Laerm;47119;49.130;9.218;2023-04-16T23:29:08;36.10;29.41;44.11;;
61249;Laerm;47119;49.130;9.218;2023-04-16T23:31:35;37.09;29.84;47.35;;
61249;Laerm;47119;49.130;9.218;2023-04-16T23:34:02;39.13;29.01;57.50;;
61249;Laerm;47119;49.130;9.218;2023-04-16T23:36:33;42.76;30.23;59.49;;
61249;Laerm;47119;49.130;9.218;2023-04-16T23:39:00;44.24;31.05;59.01;;
61249;Laerm;47119;49.130;9.218;2023-04-16T23:41:27;37.76;30.90;49.78;;
61249;Laerm;47119;49.130;9.218;2023-04-16T23:43:56;35.81;32.03;41.55;;
61249;Laerm;47119;49.130;9.218;2023-04-16T23:46:23;35.58;30.55;51.95;;
61249;Laerm;47119;49.130;9.218;2023-04-16T23:48:50;42.10;30.67;58.34;;
61249;Laerm;47119;49.130;9.218;2023-04-16T23:51:19;41.10;31.44;51.73;;
61249;Laerm;47119;49.130;9.218;2023-04-16T23:53:46;35.28;30.57;45.98;;
61249;Laerm;47119;49.130;9.218;2023-04-16T23:56:14;38.05;31.23;49.80;;
61249;Laerm;47119;49.130;9.218;2023-04-16T23:58:41;36.10;30.50;46.81;;
